sensor_id;sensor_type;location;lat;lon;timestamp;pressure;altitude;pressure_sealevel;temperature;humidity
35307;BME280;21420;52.196;21.416;2023-04-09T10:10:20;101019.97;;;26.84;49.10
35307;BME280;21420;52.196;21.416;2023-04-09T10:12:49;101020.73;;;25.15;47.91
35307;BME280;21420;52.196;21.416;2023-04-09T10:15:18;101016.92;;;24.11;47.72
35307;BME280;21420;52.196;21.416;2023-04-09T10:17:45;101022.31;;;23.26;48.15
35307;BME280;21420;52.196;21.416;2023-04-09T10:20:32;101019.89;;;22.78;48.56
35307;BME280;21420;52.196;21.416;2023-04-09T10:23:05;101020.64;;;22.30;48.67
35307;BME280;21420;52.196;21.416;2023-04-09T10:25:35;101017.79;;;22.07;48.96
35307;BME280;21420;52.196;21.416;2023-04-09T10:28:01;101017.00;;;21.98;49.39
35307;BME280;21420;52.196;21.416;2023-04-09T10:30:39;101017.06;;;22.00;49.69
35307;BME280;21420;52.196;21.416;2023-04-09T10:33:14;101013.80;;;21.93;49.52
35307;BME280;21420;52.196;21.416;2023-04-09T10:35:45;101014.60;;;21.97;49.75
35307;BME280;21420;52.196;21.416;2023-04-09T10:38:14;101012.45;;;22.54;50.14
35307;BME280;21420;52.196;21.416;2023-04-09T10:40:47;101010.20;;;23.25;49.95
35307;BME280;21420;52.196;21.416;2023-04-09T10:43:18;101008.96;;;23.90;49.84
35307;BME280;21420;52.196;21.416;2023-04-09T10:45:47;101009.98;;;23.94;48.97
35307;BME280;21420;52.196;21.416;2023-04-09T10:48:19;101006.27;;;23.55;48.39
35307;BME280;21420;52.196;21.416;2023-04-09T10:50:49;101007.92;;;22.99;48.10
35307;BME280;21420;52.196;21.416;2023-04-09T10:53:24;101008.09;;;22.45;47.17
35307;BME280;21420;52.196;21.416;2023-04-09T10:55:52;101009.96;;;21.62;47.22
35307;BME280;21420;52.196;21.416;2023-04-09T10:58:19;101008.73;;;21.39;47.98
35307;BME280;21420;52.196;21.416;2023-04-09T11:00:48;101008.77;;;21.30;48.00
35307;BME280;21420;52.196;21.416;2023-04-09T11:03:27;101008.93;;;21.04;47.86
35307;BME280;21420;52.196;21.416;2023-04-09T11:06:01;101008.55;;;20.69;48.15
35307;BME280;21420;52.196;21.416;2023-04-09T11:08:30;101006.73;;;20.88;49.04
35307;BME280;21420;52.196;21.416;2023-04-09T11:10:58;101001.24;;;21.36;49.47
35307;BME280;21420;52.196;21.416;2023-04-09T11:13:28;101002.51;;;21.80;49.58
35307;BME280;21420;52.196;21.416;2023-04-09T11:15:56;101003.61;;;22.12;49.63
35307;BME280;21420;52.196;21.416;2023-04-09T11:18:28;101001.68;;;22.35;49.42
35307;BME280;21420;52.196;21.416;2023-04-09T11:21:00;101000.17;;;22.59;49.42
35307;BME280;21420;52.196;21.416;2023-04-09T11:23:27;100994.52;;;23.02;49.80
35307;BME280;21420;52.196;21.416;2023-04-09T11:25:54;100994.01;;;23.38;49.61
35307;BME280;21420;52.196;21.416;2023-04-09T11:28:22;100993.85;;;23.60;49.41
35307;BME280;21420;52.196;21.416;2023-04-09T11:30:50;100995.13;;;23.59;49.03
35307;BME280;21420;52.196;21.416;2023-04-09T11:33:17;100992.60;;;23.32;48.74
35307;BME280;21420;52.196;21.416;2023-04-09T11:35:46;100995.69;;;22.86;48.07
35307;BME280;21420;52.196;21.416;2023-04-09T11:38:13;100997.36;;;22.41;48.13
35307;BME280;21420;52.196;21.416;2023-04-09T11:40:41;100995.49;;;22.03;47.88
35307;BME280;21420;52.196;21.416;2023-04-09T11:43:15;100999.54;;;21.62;47.86
35307;BME280;21420;52.196;21.416;2023-04-09T11:45:43;100997.67;;;21.16;47.66
35307;BME280;21420;52.196;21.416;2023-04-09T11:48:10;100998.48;;;20.61;47.63
35307;BME280;21420;52.196;21.416;2023-04-09T11:50:38;100998.20;;;20.16;47.90
35307;BME280;21420;52.196;21.416;2023-04-09T11:53:20;100997.96;;;19.84;48.12
35307;BME280;21420;52.196;21.416;2023-04-09T11:55:49;101000.87;;;19.65;48.45
35307;BME280;21420;52.196;21.416;2023-04-09T11:58:17;100998.88;;;19.56;48.44
35307;BME280;21420;52.196;21.416;2023-04-09T12:00:43;100998.15;;;19.47;48.39
35307;BME280;21420;52.196;21.416;2023-04-09T12:03:11;100996.35;;;19.26;48.06
35307;BME280;21420;52.196;21.416;2023-04-09T12:05:38;100996.97;;;18.97;47.94
35307;BME280;21420;52.196;21.416;2023-04-09T12:08:08;100995.19;;;18.64;47.81
35307;BME280;21420;52.196;21.416;2023-04-09T12:10:36;100996.58;;;18.44;48.15
35307;BME280;21420;52.196;21.416;2023-04-09T12:13:08;100996.79;;;18.20;48.01
35307;BME280;21420;52.196;21.416;2023-04-09T12:15:40;100997.70;;;17.93;48.08
35307;BME280;21420;52.196;21.416;2023-04-09T12:18:10;100996.61;;;17.63;48.07
35307;BME280;21420;52.196;21.416;2023-04-09T12:20:39;100997.78;;;17.26;48.12
35307;BME280;21420;52.196;21.416;2023-04-09T12:23:07;100997.52;;;17.00;48.27
35307;BME280;21420;52.196;21.416;2023-04-09T12:25:36;100995.67;;;16.70;48.05
35307;BME280;21420;52.196;21.416;2023-04-09T12:28:04;100999.47;;;16.34;48.27
35307;BME280;21420;52.196;21.416;2023-04-09T12:30:32;100994.27;;;16.06;48.39
35307;BME280;21420;52.196;21.416;2023-04-09T12:32:59;100997.63;;;15.82;48.49
35307;BME280;21420;52.196;21.416;2023-04-09T12:35:26;101003.59;;;15.63;48.66
35307;BME280;21420;52.196;21.416;2023-04-09T12:37:54;101007.91;;;15.56;48.93
35307;BME280;21420;52.196;21.416;2023-04-09T12:40:21;101005.20;;;15.50;49.02
35307;BME280;21420;52.196;21.416;2023-04-09T12:42:48;101005.83;;;15.37;49.09
35307;BME280;21420;52.196;21.416;2023-04-09T12:45:17;101007.31;;;15.25;49.29
35307;BME280;21420;52.196;21.416;2023-04-09T12:47:44;101002.52;;;15.14;49.30
35307;BME280;21420;52.196;21.416;2023-04-09T12:50:12;101003.85;;;15.11;49.53
35307;BME280;21420;52.196;21.416;2023-04-09T12:52:38;100999.77;;;15.09;49.85
35307;BME280;21420;52.196;21.416;2023-04-09T12:55:06;100997.13;;;15.13;49.95
35307;BME280;21420;52.196;21.416;2023-04-09T12:57:33;100993.70;;;15.23;50.09
35307;BME280;21420;52.196;21.416;2023-04-09T12:59:59;100991.28;;;15.32;50.34
35307;BME280;21420;52.196;21.416;2023-04-09T13:02:26;100989.41;;;15.43;50.54
35307;BME280;21420;52.196;21.416;2023-04-09T13:04:53;100988.86;;;15.57;50.63
35307;BME280;21420;52.196;21.416;2023-04-09T13:07:20;100990.02;;;15.69;50.56
35307;BME280;21420;52.196;21.416;2023-04-09T13:09:47;100982.36;;;15.75;50.53
35307;BME280;21420;52.196;21.416;2023-04-09T13:12:16;100981.60;;;15.82;50.82
35307;BME280;21420;52.196;21.416;2023-04-09T13:14:45;100976.29;;;15.91;50.84
35307;BME280;21420;52.196;21.416;2023-04-09T13:17:12;100974.07;;;15.97;50.71
35307;BME280;21420;52.196;21.416;2023-04-09T13:19:39;100969.72;;;16.06;50.83
35307;BME280;21420;52.196;21.416;2023-04-09T13:22:08;100968.89;;;16.18;50.95
35307;BME280;21420;52.196;21.416;2023-04-09T13:24:36;100971.14;;;16.31;51.02
35307;BME280;21420;52.196;21.416;2023-04-09T13:27:04;100968.90;;;16.44;50.99
35307;BME280;21420;52.196;21.416;2023-04-09T13:29:31;100970.20;;;16.56;51.02
35307;BME280;21420;52.196;21.416;2023-04-09T13:31:58;100968.67;;;16.63;51.03
35307;BME280;21420;52.196;21.416;2023-04-09T13:34:27;100967.43;;;16.71;51.27
35307;BME280;21420;52.196;21.416;2023-04-09T13:36:53;100966.95;;;16.90;51.32
35307;BME280;21420;52.196;21.416;2023-04-09T13:39:20;100965.43;;;17.30;51.79
35307;BME280;21420;52.196;21.416;2023-04-09T13:41:46;100965.02;;;17.83;51.90
35307;BME280;21420;52.196;21.416;2023-04-09T13:44:13;100961.69;;;18.30;51.73
35307;BME280;21420;52.196;21.416;2023-04-09T13:46:40;100958.41;;;18.81;51.68
35307;BME280;21420;52.196;21.416;2023-04-09T13:49:06;100954.97;;;19.28;51.75
35307;BME280;21420;52.196;21.416;2023-04-09T13:51:33;100951.92;;;19.76;51.79
35307;BME280;21420;52.196;21.416;2023-04-09T13:53:59;100952.55;;;20.19;51.68
35307;BME280;21420;52.196;21.416;2023-04-09T13:56:29;100950.80;;;20.46;51.20
35307;BME280;21420;52.196;21.416;2023-04-09T13:58:59;100945.81;;;20.65;51.03
35307;BME280;21420;52.196;21.416;2023-04-09T14:01:26;100947.73;;;20.85;50.88
35307;BME280;21420;52.196;21.416;2023-04-09T14:03:53;100951.23;;;21.15;50.92
35307;BME280;21420;52.196;21.416;2023-04-09T14:06:20;100952.98;;;21.26;50.44
35307;BME280;21420;52.196;21.416;2023-04-09T14:08:51;100949.71;;;21.15;49.86
35307;BME280;21420;52.196;21.416;2023-04-09T14:11:18;100949.75;;;21.00;49.68
35307;BME280;21420;52.196;21.416;2023-04-09T14:13:45;100948.23;;;20.74;49.50
35307;BME280;21420;52.196;21.416;2023-04-09T14:16:12;100946.77;;;20.51;49.64
35307;BME280;21420;52.196;21.416;2023-04-09T14:18:39;100942.20;;;20.29;49.54
35307;BME280;21420;52.196;21.416;2023-04-09T14:21:07;100940.31;;;20.20;49.70
35307;BME280;21420;52.196;21.416;2023-04-09T14:23:37;100943.23;;;20.28;49.78
35307;BME280;21420;52.196;21.416;2023-04-09T14:26:04;100939.61;;;20.34;49.77
35307;BME280;21420;52.196;21.416;2023-04-09T14:28:32;100937.09;;;20.39;49.78
35307;BME280;21420;52.196;21.416;2023-04-09T14:30:58;100932.94;;;20.50;49.80
35307;BME280;21420;52.196;21.416;2023-04-09T14:33:25;100934.41;;;20.43;49.43
35307;BME280;21420;52.196;21.416;2023-04-09T14:35:52;100934.56;;;20.27;49.18
35307;BME280;21420;52.196;21.416;2023-04-09T14:38:19;100934.24;;;20.27;49.41
35307;BME280;21420;52.196;21.416;2023-04-09T14:40:45;100929.63;;;20.24;49.40
35307;BME280;21420;52.196;21.416;2023-04-09T14:43:12;100925.98;;;20.24;49.32
35307;BME280;21420;52.196;21.416;2023-04-09T14:45:39;100924.24;;;20.28;49.35
35307;BME280;21420;52.196;21.416;2023-04-09T14:48:06;100922.80;;;20.25;49.26
35307;BME280;21420;52.196;21.416;2023-04-09T14:50:33;100922.11;;;20.18;49.12
35307;BME280;21420;52.196;21.416;2023-04-09T14:53:03;100919.26;;;20.03;48.75
35307;BME280;21420;52.196;21.416;2023-04-09T14:55:29;100920.17;;;19.85;48.78
35307;BME280;21420;52.196;21.416;2023-04-09T14:57:57;100920.85;;;19.72;48.58
35307;BME280;21420;52.196;21.416;2023-04-09T15:00:24;100916.42;;;19.36;48.29
35307;BME280;21420;52.196;21.416;2023-04-09T15:02:51;100920.94;;;18.97;48.33
35307;BME280;21420;52.196;21.416;2023-04-09T15:05:18;100924.20;;;18.70;48.31
35307;BME280;21420;52.196;21.416;2023-04-09T15:07:45;100922.71;;;18.53;48.60
35307;BME280;21420;52.196;21.416;2023-04-09T15:10:11;100921.48;;;18.38;48.55
35307;BME280;21420;52.196;21.416;2023-04-09T15:12:38;100917.85;;;18.20;48.42
35307;BME280;21420;52.196;21.416;2023-04-09T15:15:08;100919.92;;;18.04;48.48
35307;BME280;21420;52.196;21.416;2023-04-09T15:17:35;100921.95;;;17.91;48.56
35307;BME280;21420;52.196;21.416;2023-04-09T15:20:04;100926.65;;;17.80;48.63
35307;BME280;21420;52.196;21.416;2023-04-09T15:22:30;100927.76;;;17.70;48.59
35307;BME280;21420;52.196;21.416;2023-04-09T15:24:57;100927.89;;;17.58;48.66
35307;BME280;21420;52.196;21.416;2023-04-09T15:27:24;100926.73;;;17.46;48.63
35307;BME280;21420;52.196;21.416;2023-04-09T15:29:50;100926.27;;;17.33;48.66
35307;BME280;21420;52.196;21.416;2023-04-09T15:32:17;100927.32;;;17.25;48.80
35307;BME280;21420;52.196;21.416;2023-04-09T15:34:44;100922.48;;;17.20;48.77
35307;BME280;21420;52.196;21.416;2023-04-09T15:37:11;100923.46;;;17.18;48.76
35307;BME280;21420;52.196;21.416;2023-04-09T15:39:37;100920.64;;;17.05;48.62
35307;BME280;21420;52.196;21.416;2023-04-09T15:42:07;100921.10;;;16.87;48.59
35307;BME280;21420;52.196;21.416;2023-04-09T15:44:39;100923.03;;;16.74;48.85
35307;BME280;21420;52.196;21.416;2023-04-09T15:47:05;100924.80;;;16.64;49.08
35307;BME280;21420;52.196;21.416;2023-04-09T15:49:34;100928.71;;;16.59;49.06
35307;BME280;21420;52.196;21.416;2023-04-09T15:52:02;100927.50;;;16.50;49.02
35307;BME280;21420;52.196;21.416;2023-04-09T15:54:29;100926.81;;;16.44;49.08
35307;BME280;21420;52.196;21.416;2023-04-09T15:56:56;100925.59;;;16.31;48.92
35307;BME280;21420;52.196;21.416;2023-04-09T15:59:22;100926.48;;;16.14;48.86
35307;BME280;21420;52.196;21.416;2023-04-09T16:01:49;100925.88;;;16.01;48.99
35307;BME280;21420;52.196;21.416;2023-04-09T16:04:16;100926.08;;;15.89;49.25
35307;BME280;21420;52.196;21.416;2023-04-09T16:06:43;100929.98;;;15.80;49.55
35307;BME280;21420;52.196;21.416;2023-04-09T16:09:10;100932.60;;;15.75;49.36
35307;BME280;21420;52.196;21.416;2023-04-09T16:11:36;100934.63;;;15.68;49.46
35307;BME280;21420;52.196;21.416;2023-04-09T16:14:04;100935.17;;;15.59;49.54
35307;BME280;21420;52.196;21.416;2023-04-09T16:16:30;100934.84;;;15.48;49.53
35307;BME280;21420;52.196;21.416;2023-04-09T16:18:57;100934.23;;;15.40;49.62
35307;BME280;21420;52.196;21.416;2023-04-09T16:21:25;100936.98;;;15.33;49.61
35307;BME280;21420;52.196;21.416;2023-04-09T16:23:53;100937.42;;;15.26;49.66
35307;BME280;21420;52.196;21.416;2023-04-09T16:26:20;100938.36;;;15.20;49.84
35307;BME280;21420;52.196;21.416;2023-04-09T16:28:47;100937.90;;;15.11;49.81
35307;BME280;21420;52.196;21.416;2023-04-09T16:31:14;100939.24;;;15.05;49.96
35307;BME280;21420;52.196;21.416;2023-04-09T16:33:41;100937.74;;;14.99;49.98
35307;BME280;21420;52.196;21.416;2023-04-09T16:36:07;100937.17;;;14.93;50.04
35307;BME280;21420;52.196;21.416;2023-04-09T16:38:34;100937.44;;;14.88;50.27
35307;BME280;21420;52.196;21.416;2023-04-09T16:41:01;100938.82;;;14.84;50.34
35307;BME280;21420;52.196;21.416;2023-04-09T16:43:31;100938.02;;;14.78;50.26
35307;BME280;21420;52.196;21.416;2023-04-09T16:45:58;100936.61;;;14.72;50.16
35307;BME280;21420;52.196;21.416;2023-04-09T16:48:24;100935.39;;;14.66;50.39
35307;BME280;21420;52.196;21.416;2023-04-09T16:50:51;100936.40;;;14.57;50.48
35307;BME280;21420;52.196;21.416;2023-04-09T16:53:18;100942.39;;;14.53;50.48
35307;BME280;21420;52.196;21.416;2023-04-09T16:55:44;100944.98;;;14.50;50.65
35307;BME280;21420;52.196;21.416;2023-04-09T16:58:11;100943.48;;;14.45;50.67
35307;BME280;21420;52.196;21.416;2023-04-09T17:00:37;100948.03;;;14.38;50.88
35307;BME280;21420;52.196;21.416;2023-04-09T17:03:05;100951.36;;;14.34;50.76
35307;BME280;21420;52.196;21.416;2023-04-09T17:05:32;100954.31;;;14.30;50.90
35307;BME280;21420;52.196;21.416;2023-04-09T17:08:00;100954.49;;;14.26;51.01
35307;BME280;21420;52.196;21.416;2023-04-09T17:10:26;100954.06;;;14.22;51.02
35307;BME280;21420;52.196;21.416;2023-04-09T17:12:53;100954.65;;;14.18;50.99
35307;BME280;21420;52.196;21.416;2023-04-09T17:15:20;100959.20;;;14.15;51.09
35307;BME280;21420;52.196;21.416;2023-04-09T17:17:48;100957.85;;;14.12;51.09
35307;BME280;21420;52.196;21.416;2023-04-09T17:20:18;100956.59;;;14.09;51.12
35307;BME280;21420;52.196;21.416;2023-04-09T17:22:47;100956.59;;;14.05;51.04
35307;BME280;21420;52.196;21.416;2023-04-09T17:25:14;100961.84;;;13.99;51.09
35307;BME280;21420;52.196;21.416;2023-04-09T17:27:41;100961.89;;;13.95;51.15
35307;BME280;21420;52.196;21.416;2023-04-09T17:30:10;100964.29;;;13.94;51.35
35307;BME280;21420;52.196;21.416;2023-04-09T17:32:37;100968.14;;;13.91;51.29
35307;BME280;21420;52.196;21.416;2023-04-09T17:35:09;100970.44;;;13.87;51.46
35307;BME280;21420;52.196;21.416;2023-04-09T17:37:35;100971.58;;;13.81;51.42
35307;BME280;21420;52.196;21.416;2023-04-09T17:40:04;100971.98;;;13.77;51.55
35307;BME280;21420;52.196;21.416;2023-04-09T17:42:32;100975.05;;;13.72;51.69
35307;BME280;21420;52.196;21.416;2023-04-09T17:44:59;100977.85;;;13.68;51.53
35307;BME280;21420;52.196;21.416;2023-04-09T17:47:26;100982.95;;;13.64;51.45
35307;BME280;21420;52.196;21.416;2023-04-09T17:49:52;100984.67;;;13.61;51.68
35307;BME280;21420;52.196;21.416;2023-04-09T17:52:19;100990.26;;;13.59;51.89
35307;BME280;21420;52.196;21.416;2023-04-09T17:54:46;100992.05;;;13.56;51.92
35307;BME280;21420;52.196;21.416;2023-04-09T17:57:15;100990.22;;;13.50;51.79
35307;BME280;21420;52.196;21.416;2023-04-09T17:59:42;100995.40;;;13.46;51.97
35307;BME280;21420;52.196;21.416;2023-04-09T18:02:11;101001.02;;;13.40;51.99
35307;BME280;21420;52.196;21.416;2023-04-09T18:04:38;101002.80;;;13.35;51.94
35307;BME280;21420;52.196;21.416;2023-04-09T18:07:05;101002.45;;;13.29;52.03
35307;BME280;21420;52.196;21.416;2023-04-09T18:09:31;101005.46;;;13.24;51.94
35307;BME280;21420;52.196;21.416;2023-04-09T18:11:58;101010.67;;;13.19;52.23
35307;BME280;21420;52.196;21.416;2023-04-09T18:14:27;101009.08;;;13.13;52.26
35307;BME280;21420;52.196;21.416;2023-04-09T18:16:57;101013.98;;;13.08;52.37
35307;BME280;21420;52.196;21.416;2023-04-09T18:19:24;101022.48;;;13.02;52.47
35307;BME280;21420;52.196;21.416;2023-04-09T18:21:51;101026.23;;;12.97;52.48
35307;BME280;21420;52.196;21.416;2023-04-09T18:24:17;101031.20;;;12.93;52.64
35307;BME280;21420;52.196;21.416;2023-04-09T18:26:44;101030.73;;;12.89;52.88
35307;BME280;21420;52.196;21.416;2023-04-09T18:29:10;101038.39;;;12.86;52.73
35307;BME280;21420;52.196;21.416;2023-04-09T18:31:38;101040.06;;;12.82;52.78
35307;BME280;21420;52.196;21.416;2023-04-09T18:34:04;101042.74;;;12.79;52.83
35307;BME280;21420;52.196;21.416;2023-04-09T18:36:31;101043.95;;;12.75;52.89
35307;BME280;21420;52.196;21.416;2023-04-09T18:38:58;101040.17;;;12.68;52.97
35307;BME280;21420;52.196;21.416;2023-04-09T18:41:25;101040.59;;;12.59;53.15
35307;BME280;21420;52.196;21.416;2023-04-09T18:43:53;101036.93;;;12.49;53.14
35307;BME280;21420;52.196;21.416;2023-04-09T18:46:19;101038.96;;;12.41;53.08
35307;BME280;21420;52.196;21.416;2023-04-09T18:48:48;101037.09;;;12.34;53.37
35307;BME280;21420;52.196;21.416;2023-04-09T18:51:14;101038.63;;;12.29;53.34
35307;BME280;21420;52.196;21.416;2023-04-09T18:53:43;101042.95;;;12.27;53.35
35307;BME280;21420;52.196;21.416;2023-04-09T18:56:10;101045.88;;;12.26;53.59
35307;BME280;21420;52.196;21.416;2023-04-09T18:58:37;101052.34;;;12.24;53.64
35307;BME280;21420;52.196;21.416;2023-04-09T19:01:10;101049.05;;;12.21;53.84
35307;BME280;21420;52.196;21.416;2023-04-09T19:03:38;101050.61;;;12.17;53.92
35307;BME280;21420;52.196;21.416;2023-04-09T19:06:13;101050.55;;;12.15;54.04
35307;BME280;21420;52.196;21.416;2023-04-09T19:08:40;101048.84;;;12.16;54.04
35307;BME280;21420;52.196;21.416;2023-04-09T19:11:07;101043.89;;;12.16;54.06
35307;BME280;21420;52.196;21.416;2023-04-09T19:13:35;101046.31;;;12.16;54.16
35307;BME280;21420;52.196;21.416;2023-04-09T19:16:02;101045.55;;;12.16;54.17
35307;BME280;21420;52.196;21.416;2023-04-09T19:18:32;101041.48;;;12.14;54.34
35307;BME280;21420;52.196;21.416;2023-04-09T19:20:59;101038.17;;;12.10;54.46
35307;BME280;21420;52.196;21.416;2023-04-09T19:23:26;101039.88;;;12.09;54.41
35307;BME280;21420;52.196;21.416;2023-04-09T19:25:53;101040.52;;;12.07;54.32
35307;BME280;21420;52.196;21.416;2023-04-09T19:28:21;101039.59;;;12.04;54.50
35307;BME280;21420;52.196;21.416;2023-04-09T19:30:49;101036.21;;;12.02;54.54
35307;BME280;21420;52.196;21.416;2023-04-09T19:33:23;101036.94;;;12.00;54.55
35307;BME280;21420;52.196;21.416;2023-04-09T19:35:52;101036.55;;;11.99;54.69
35307;BME280;21420;52.196;21.416;2023-04-09T19:38:19;101038.77;;;11.98;54.77
35307;BME280;21420;52.196;21.416;2023-04-09T19:40:46;101037.68;;;11.98;54.90
35307;BME280;21420;52.196;21.416;2023-04-09T19:43:16;101036.66;;;11.96;54.90
35307;BME280;21420;52.196;21.416;2023-04-09T19:45:43;101032.93;;;11.95;54.96
35307;BME280;21420;52.196;21.416;2023-04-09T19:48:10;101032.61;;;11.92;54.99
35307;BME280;21420;52.196;21.416;2023-04-09T19:50:37;101032.52;;;11.90;54.94
35307;BME280;21420;52.196;21.416;2023-04-09T19:53:06;101031.48;;;11.88;55.17
35307;BME280;21420;52.196;21.416;2023-04-09T19:55:33;101030.54;;;11.86;55.15
35307;BME280;21420;52.196;21.416;2023-04-09T19:58:00;101031.92;;;11.86;55.36
35307;BME280;21420;52.196;21.416;2023-04-09T20:00:28;101034.13;;;11.86;55.42
35307;BME280;21420;52.196;21.416;2023-04-09T20:02:54;101033.88;;;11.84;55.41
35307;BME280;21420;52.196;21.416;2023-04-09T20:05:22;101038.02;;;11.80;55.54
35307;BME280;21420;52.196;21.416;2023-04-09T20:07:49;101036.00;;;11.75;55.56
35307;BME280;21420;52.196;21.416;2023-04-09T20:10:18;101035.23;;;11.68;55.45
35307;BME280;21420;52.196;21.416;2023-04-09T20:12:48;101039.33;;;11.62;55.52
35307;BME280;21420;52.196;21.416;2023-04-09T20:15:16;101040.95;;;11.58;55.46
35307;BME280;21420;52.196;21.416;2023-04-09T20:17:49;101045.28;;;11.55;55.58
35307;BME280;21420;52.196;21.416;2023-04-09T20:20:16;101043.58;;;11.50;55.67
35307;BME280;21420;52.196;21.416;2023-04-09T20:22:46;101046.02;;;11.45;55.72
35307;BME280;21420;52.196;21.416;2023-04-09T20:25:22;101046.23;;;11.36;55.96
35307;BME280;21420;52.196;21.416;2023-04-09T20:27:51;101043.91;;;11.29;55.91
35307;BME280;21420;52.196;21.416;2023-04-09T20:30:19;101041.14;;;11.21;55.85
35307;BME280;21420;52.196;21.416;2023-04-09T20:32:46;101043.48;;;11.15;56.00
35307;BME280;21420;52.196;21.416;2023-04-09T20:35:14;101042.73;;;11.09;56.01
35307;BME280;21420;52.196;21.416;2023-04-09T20:37:41;101045.63;;;11.06;56.08
35307;BME280;21420;52.196;21.416;2023-04-09T20:40:08;101048.27;;;11.03;56.16
35307;BME280;21420;52.196;21.416;2023-04-09T20:42:35;101043.92;;;10.99;56.08
35307;BME280;21420;52.196;21.416;2023-04-09T20:45:04;101046.08;;;10.93;56.11
35307;BME280;21420;52.196;21.416;2023-04-09T20:47:31;101044.59;;;10.88;56.23
35307;BME280;21420;52.196;21.416;2023-04-09T20:49:57;101043.38;;;10.83;56.42
35307;BME280;21420;52.196;21.416;2023-04-09T20:52:26;101048.58;;;10.79;56.41
35307;BME280;21420;52.196;21.416;2023-04-09T20:54:56;101047.73;;;10.73;56.49
35307;BME280;21420;52.196;21.416;2023-04-09T20:57:23;101046.83;;;10.69;56.60
35307;BME280;21420;52.196;21.416;2023-04-09T20:59:49;101047.11;;;10.66;56.59
35307;BME280;21420;52.196;21.416;2023-04-09T21:02:18;101044.02;;;10.62;56.66
35307;BME280;21420;52.196;21.416;2023-04-09T21:04:44;101043.60;;;10.58;56.73
35307;BME280;21420;52.196;21.416;2023-04-09T21:07:11;101044.58;;;10.52;56.71
35307;BME280;21420;52.196;21.416;2023-04-09T21:09:38;101045.60;;;10.46;56.85
35307;BME280;21420;52.196;21.416;2023-04-09T21:12:04;101043.26;;;10.36;56.93
35307;BME280;21420;52.196;21.416;2023-04-09T21:14:32;101039.25;;;10.28;56.93
35307;BME280;21420;52.196;21.416;2023-04-09T21:16:58;101037.25;;;10.19;56.79
35307;BME280;21420;52.196;21.416;2023-04-09T21:19:25;101033.71;;;10.10;56.82
35307;BME280;21420;52.196;21.416;2023-04-09T21:21:52;101028.27;;;10.03;56.93
35307;BME280;21420;52.196;21.416;2023-04-09T21:24:18;101032.41;;;9.96;57.07
35307;BME280;21420;52.196;21.416;2023-04-09T21:26:45;101031.09;;;9.88;57.18
35307;BME280;21420;52.196;21.416;2023-04-09T21:29:18;101028.67;;;9.79;57.22
35307;BME280;21420;52.196;21.416;2023-04-09T21:31:46;101029.16;;;9.70;57.38
35307;BME280;21420;52.196;21.416;2023-04-09T21:34:14;101029.25;;;9.61;57.34
35307;BME280;21420;52.196;21.416;2023-04-09T21:36:41;101028.91;;;9.52;57.46
35307;BME280;21420;52.196;21.416;2023-04-09T21:39:11;101029.00;;;9.45;57.46
35307;BME280;21420;52.196;21.416;2023-04-09T21:41:38;101031.95;;;9.38;57.49
35307;BME280;21420;52.196;21.416;2023-04-09T21:44:04;101035.02;;;9.33;57.39
35307;BME280;21420;52.196;21.416;2023-04-09T21:46:35;101040.58;;;9.27;57.56
35307;BME280;21420;52.196;21.416;2023-04-09T21:49:06;101039.88;;;9.21;57.75
35307;BME280;21420;52.196;21.416;2023-04-09T21:51:35;101033.91;;;9.14;57.72
35307;BME280;21420;52.196;21.416;2023-04-09T21:54:07;101030.61;;;9.08;57.77
35307;BME280;21420;52.196;21.416;2023-04-09T21:56:35;101037.14;;;9.03;57.93
35307;BME280;21420;52.196;21.416;2023-04-09T21:59:03;101038.54;;;8.99;57.99
35307;BME280;21420;52.196;21.416;2023-04-09T22:01:30;101037.67;;;8.94;58.14
35307;BME280;21420;52.196;21.416;2023-04-09T22:04:00;101038.36;;;8.90;58.11
35307;BME280;21420;52.196;21.416;2023-04-09T22:06:28;101040.66;;;8.83;58.05
35307;BME280;21420;52.196;21.416;2023-04-09T22:08:55;101041.70;;;8.72;58.03
35307;BME280;21420;52.196;21.416;2023-04-09T22:11:25;101040.01;;;8.65;58.23
35307;BME280;21420;52.196;21.416;2023-04-09T22:13:57;101039.09;;;8.63;58.31
35307;BME280;21420;52.196;21.416;2023-04-09T22:16:24;101039.88;;;8.58;58.42
35307;BME280;21420;52.196;21.416;2023-04-09T22:18:52;101044.25;;;8.51;58.38
35307;BME280;21420;52.196;21.416;2023-04-09T22:21:20;101046.73;;;8.41;58.37
35307;BME280;21420;52.196;21.416;2023-04-09T22:23:47;101044.60;;;8.30;58.39
35307;BME280;21420;52.196;21.416;2023-04-09T22:26:13;101041.71;;;8.19;58.34
35307;BME280;21420;52.196;21.416;2023-04-09T22:28:40;101047.05;;;8.11;58.45
35307;BME280;21420;52.196;21.416;2023-04-09T22:31:06;101052.94;;;8.05;58.62
35307;BME280;21420;52.196;21.416;2023-04-09T22:33:33;101050.55;;;7.99;58.69
35307;BME280;21420;52.196;21.416;2023-04-09T22:36:00;101048.13;;;7.91;58.68
35307;BME280;21420;52.196;21.416;2023-04-09T22:38:27;101052.80;;;7.83;58.77
35307;BME280;21420;52.196;21.416;2023-04-09T22:40:53;101053.80;;;7.77;58.79
35307;BME280;21420;52.196;21.416;2023-04-09T22:43:21;101049.67;;;7.70;58.82
35307;BME280;21420;52.196;21.416;2023-04-09T22:45:49;101048.98;;;7.65;58.90
35307;BME280;21420;52.196;21.416;2023-04-09T22:48:18;101051.83;;;7.61;59.04
35307;BME280;21420;52.196;21.416;2023-04-09T22:50:46;101053.85;;;7.58;59.26
35307;BME280;21420;52.196;21.416;2023-04-09T22:53:14;101055.13;;;7.57;59.30